Time,TemperatureF,DewpointF,PressureIn,WindDirection,WindDirectionDegrees,WindSpeedMPH,WindSpeedGustMPH,Humidity,HourlyPrecipIn,Conditions,Clouds,dailyrainin,SoftwareType,DateUTC
2013-07-01 00:14:00,49.6,45.0,29.88,WSW,237,0.0,0.0,84,0.00,,,0.00,weatherlink.com 1.10,2013-07-01 06:14:00,
2013-07-01 00:29:00,48.3,44.0,29.88,WSW,237,1.0,2.0,86,0.00,,,0.00,weatherlink.com 1.10,2013-07-01 06:29:00,
2013-07-01 00:44:00,47.4,44.0,29.88,SSE,159,0.0,3.0,88,0.00,,,0.00,weatherlink.com 1.10,2013-07-01 06:44:00,
2013-07-01 00:59:00,46.9,44.0,29.89,SSE,159,0.0,1.0,89,0.00,,,0.00,weatherlink.com 1.10,2013-07-01 06:59:00,
2013-07-01 01:13:00,46.9,44.0,29.88,SSE,159,0.0,0.0,90,0.00,,,0.00,weatherlink.com 1.10,2013-07-01 07:13:00,
2013-07-01 01:28:00,46.8,44.0,29.88,SSE,159,0.0,0.0,90,0.00,,,0.00,weatherlink.com 1.10,2013-07-01 07:28:00,
2013-07-01 01:43:00,46.7,44.0,29.88,SSE,159,0.0,0.0,91,0.00,,,0.00,weatherlink.com 1.10,2013-07-01 07:43:00,
2013-07-01 02:00:00,46.4,44.0,29.88,SSE,159,0.0,0.0,91,0.00,,,0.00,weatherlink.com 1.10,2013-07-01 08:00:00,
2013-07-01 02:13:00,46.2,44.0,29.88,SSE,159,0.0,0.0,91,0.00,,,0.00,weatherlink.com 1.10,2013-07-01 08:13:00,
2013-07-01 02:28:00,45.8,43.0,29.88,SSE,159,0.0,0.0,91,0.00,,,0.00,weatherlink.com 1.10,2013-07-01 08:28:00,
2013-07-01 02:44:00,45.3,43.0,29.88,SSE,159,0.0,0.0,91,0.00,,,0.00,weatherlink.com 1.10,2013-07-01 08:44:00,
2013-07-01 02:59:00,44.8,42.0,29.88,SSE,159,0.0,0.0,91,0.00,,,0.00,weatherlink.com 1.10,2013-07-01 08:59:00,
2013-07-01 03:13:00,44.5,42.0,29.88,SSE,159,0.0,0.0,92,0.00,,,0.00,weatherlink.com 1.10,2013-07-01 09:13:00,
2013-07-01 03:28:00,44.5,42.0,29.88,SSE,159,0.0,0.0,92,0.00,,,0.00,weatherlink.com 1.10,2013-07-01 09:28:00,
2013-07-01 03:43:00,44.3,42.0,29.88,SSE,159,0.0,0.0,92,0.00,,,0.00,weatherlink.com 1.10,2013-07-01 09:43:00,
2013-07-01 03:58:00,44.1,42.0,29.88,SSE,159,0.0,0.0,92,0.00,,,0.00,weatherlink.com 1.10,2013-07-01 09:58:00,
2013-07-01 04:14:00,43.8,42.0,29.88,SSE,159,0.0,0.0,92,0.00,,,0.00,weatherlink.com 1.10,2013-07-01 10:14:00,
2013-07-01 04:29:00,43.8,42.0,29.88,SSE,159,2.0,3.0,93,0.00,,,0.00,weatherlink.com 1.10,2013-07-01 10:29:00,
2013-07-01 04:44:00,44.0,42.0,29.87,SSE,157,0.0,0.0,93,0.01,,,0.01,weatherlink.com 1.10,2013-07-01 10:44:00,
2013-07-01 04:59:00,44.2,42.0,29.88,SSE,157,0.0,0.0,93,0.01,,,0.01,weatherlink.com 1.10,2013-07-01 10:59:00,
2013-07-01 05:14:00,44.3,42.0,29.88,SSE,157,0.0,0.0,93,0.01,,,0.01,weatherlink.com 1.10,2013-07-01 11:14:00,
2013-07-01 05:29:00,44.2,42.0,29.88,SSE,157,0.0,0.0,93,0.01,,,0.01,weatherlink.com 1.10,2013-07-01 11:29:00,
2013-07-01 05:44:00,43.8,42.0,29.89,SSE,157,0.0,0.0,93,0.00,,,0.01,weatherlink.com 1.10,2013-07-01 11:44:00,
2013-07-01 05:59:00,43.3,42.0,29.89,SSE,157,0.0,0.0,93,0.00,,,0.01,weatherlink.com 1.10,2013-07-01 11:59:00,
2013-07-01 06:14:00,43.4,42.0,29.90,SSE,157,0.0,0.0,93,0.00,,,0.01,weatherlink.com 1.10,2013-07-01 12:14:00,
2013-07-01 06:29:00,43.6,42.0,29.90,SSE,157,0.0,0.0,93,0.00,,,0.01,weatherlink.com 1.10,2013-07-01 12:29:00,
2013-07-01 06:44:00,44.3,43.0,29.91,SSE,157,0.0,0.0,94,0.00,,,0.01,weatherlink.com 1.10,2013-07-01 12:44:00,
2013-07-01 06:59:00,45.0,43.0,29.91,SSE,157,0.0,0.0,94,0.00,,,0.01,weatherlink.com 1.10,2013-07-01 12:59:00,
2013-07-01 07:14:00,46.3,45.0,29.91,SSE,157,0.0,0.0,94,0.00,,,0.01,weatherlink.com 1.10,2013-07-01 13:14:00,
2013-07-01 07:29:00,48.8,47.0,29.91,SSE,157,0.0,0.0,94,0.00,,,0.01,weatherlink.com 1.10,2013-07-01 13:29:00,
2013-07-01 07:44:00,51.2,47.0,29.91,SSE,157,0.0,0.0,86,0.00,,,0.01,weatherlink.com 1.10,2013-07-01 13:44:00,
2013-07-01 08:00:00,52.3,47.0,29.91,East,94,0.0,1.0,83,0.00,,,0.01,weatherlink.com 1.10,2013-07-01 14:00:00,
2013-07-01 08:14:00,53.6,47.0,29.91,East,85,0.0,0.0,78,0.00,,,0.01,weatherlink.com 1.10,2013-07-01 14:14:00,
2013-07-01 08:29:00,55.2,48.0,29.91,East,85,0.0,0.0,78,0.00,,,0.01,weatherlink.com 1.10,2013-07-01 14:29:00,
2013-07-01 08:44:00,56.2,48.0,29.90,ESE,105,0.0,1.0,75,0.00,,,0.01,weatherlink.com 1.10,2013-07-01 14:44:00,
2013-07-01 08:59:00,58.2,45.0,29.90,NW,304,0.0,4.0,61,0.00,,,0.01,weatherlink.com 1.10,2013-07-01 14:59:00,
2013-07-01 09:14:00,59.9,43.0,29.90,NNW,333,0.0,3.0,55,0.00,,,0.01,weatherlink.com 1.10,2013-07-01 15:14:00,
2013-07-01 09:30:00,60.8,42.0,29.90,NW,313,0.0,4.0,50,0.00,,,0.01,weatherlink.com 1.10,2013-07-01 15:30:00,
2013-07-01 09:45:00,61.2,42.0,29.90,NNE,19,0.0,3.0,49,0.00,,,0.01,weatherlink.com 1.10,2013-07-01 15:45:00,
2013-07-01 10:00:00,62.8,44.0,29.90,NNE,15,0.0,3.0,51,0.00,,,0.01,weatherlink.com 1.10,2013-07-01 16:00:00,
2013-07-01 10:15:00,63.1,40.0,29.89,NE,37,0.0,8.0,43,0.00,,,0.01,weatherlink.com 1.10,2013-07-01 16:15:00,
2013-07-01 10:30:00,64.4,39.0,29.90,ENE,66,2.0,6.0,40,0.00,,,0.01,weatherlink.com 1.10,2013-07-01 16:30:00,
2013-07-01 10:46:00,65.6,40.0,29.89,WNW,296,0.0,6.0,39,0.00,,,0.01,weatherlink.com 1.10,2013-07-01 16:46:00,
2013-07-01 11:01:00,67.1,35.0,29.89,NNW,340,2.0,5.0,31,0.00,,,0.01,weatherlink.com 1.10,2013-07-01 17:01:00,
2013-07-01 11:15:00,67.3,36.0,29.89,NE,38,0.0,8.0,32,0.00,,,0.01,weatherlink.com 1.10,2013-07-01 17:15:00,
2013-07-01 11:30:00,67.3,36.0,29.89,NNW,345,3.0,9.0,31,0.00,,,0.01,weatherlink.com 1.10,2013-07-01 17:30:00,
2013-07-01 11:45:00,68.0,35.0,29.89,NW,319,2.0,8.0,30,0.00,,,0.01,weatherlink.com 1.10,2013-07-01 17:45:00,
2013-07-01 12:00:00,68.8,35.0,29.89,North,360,4.0,10.0,29,0.00,,,0.01,weatherlink.com 1.10,2013-07-01 18:00:00,
2013-07-01 12:15:00,69.4,37.0,29.89,NE,46,5.0,7.0,30,0.00,,,0.01,weatherlink.com 1.10,2013-07-01 18:15:00,
2013-07-01 12:30:00,68.8,37.0,29.89,NE,47,0.0,10.0,31,0.00,,,0.01,weatherlink.com 1.10,2013-07-01 18:30:00,
2013-07-01 12:45:00,68.9,39.0,29.88,ENE,71,0.0,4.0,33,0.00,,,0.01,weatherlink.com 1.10,2013-07-01 18:45:00,
2013-07-01 13:03:00,69.5,37.0,29.88,SE,135,0.0,10.0,31,0.00,,,0.01,weatherlink.com 1.10,2013-07-01 19:03:00,
2013-07-01 13:15:00,70.5,38.0,29.88,NNE,19,0.0,7.0,31,0.00,,,0.01,weatherlink.com 1.10,2013-07-01 19:15:00,
2013-07-01 13:30:00,69.9,40.0,29.87,NE,46,0.0,5.0,34,0.00,,,0.01,weatherlink.com 1.10,2013-07-01 19:30:00,
2013-07-01 13:45:00,70.1,37.0,29.87,NNE,13,0.0,9.0,30,0.00,,,0.01,weatherlink.com 1.10,2013-07-01 19:45:00,
2013-07-01 14:00:00,69.2,44.0,29.88,East,81,9.0,16.0,40,0.00,,,0.01,weatherlink.com 1.10,2013-07-01 20:00:00,
2013-07-01 14:15:00,65.9,41.0,29.88,ESE,115,7.0,14.0,41,0.00,,,0.01,weatherlink.com 1.10,2013-07-01 20:15:00,
2013-07-01 14:45:00,66.1,41.0,29.89,NNE,26,14.0,16.0,40,0.00,,,0.01,weatherlink.com 1.10,2013-07-01 20:45:00,
2013-07-01 15:00:00,63.2,40.0,29.90,ENE,71,11.0,17.0,43,0.00,,,0.01,weatherlink.com 1.10,2013-07-01 21:00:00,
2013-07-01 15:16:00,63.8,41.0,29.89,ESE,103,10.0,13.0,43,0.00,,,0.01,weatherlink.com 1.10,2013-07-01 21:16:00,
2013-07-01 15:31:00,64.4,39.0,29.89,NE,51,7.0,13.0,40,0.00,,,0.01,weatherlink.com 1.10,2013-07-01 21:31:00,
2013-07-01 15:46:00,64.4,41.0,29.90,East,88,3.0,15.0,43,0.00,,,0.01,weatherlink.com 1.10,2013-07-01 21:46:00,
2013-07-01 16:01:00,62.8,40.0,29.90,East,84,5.0,12.0,44,0.00,,,0.01,weatherlink.com 1.10,2013-07-01 22:01:00,
2013-07-01 16:16:00,61.8,40.0,29.90,ESE,105,8.0,11.0,45,0.00,,,0.01,weatherlink.com 1.10,2013-07-01 22:16:00,
2013-07-01 16:31:00,61.1,41.0,29.90,East,85,6.0,11.0,47,0.00,,,0.01,weatherlink.com 1.10,2013-07-01 22:31:00,
2013-07-01 16:48:00,62.7,43.0,29.90,East,79,5.0,8.0,48,0.00,,,0.01,weatherlink.com 1.10,2013-07-01 22:48:00,
2013-07-01 17:01:00,64.1,42.0,29.90,SE,129,0.0,13.0,44,0.00,,,0.01,weatherlink.com 1.10,2013-07-01 23:01:00,
2013-07-01 17:16:00,63.4,40.0,29.90,ENE,69,0.0,10.0,43,0.00,,,0.01,weatherlink.com 1.10,2013-07-01 23:16:00,
2013-07-01 17:31:00,62.0,40.0,29.89,ENE,78,3.0,13.0,45,0.00,,,0.01,weatherlink.com 1.10,2013-07-01 23:31:00,
2013-07-01 17:46:00,61.1,39.0,29.89,NE,54,0.0,10.0,45,0.00,,,0.01,weatherlink.com 1.10,2013-07-01 23:46:00,
2013-07-01 18:01:00,60.4,40.0,29.90,NNE,31,0.0,5.0,47,0.00,,,0.01,weatherlink.com 1.10,2013-07-02 00:01:00,
2013-07-01 18:16:00,59.8,42.0,29.92,ENE,58,0.0,8.0,52,0.00,,,0.01,weatherlink.com 1.10,2013-07-02 00:16:00,
2013-07-01 18:31:00,55.7,46.0,29.91,North,355,0.0,8.0,69,0.01,,,0.02,weatherlink.com 1.10,2013-07-02 00:31:00,
2013-07-01 18:46:00,53.4,47.0,29.88,ESE,109,0.0,8.0,79,0.01,,,0.02,weatherlink.com 1.10,2013-07-02 00:46:00,
2013-07-01 19:01:00,53.4,46.0,29.90,South,171,0.0,5.0,75,0.01,,,0.02,weatherlink.com 1.10,2013-07-02 01:01:00,
2013-07-01 19:16:00,54.6,45.0,29.90,South,177,0.0,1.0,71,0.01,,,0.02,weatherlink.com 1.10,2013-07-02 01:16:00,
2013-07-01 19:32:00,55.6,45.0,29.90,South,186,0.0,3.0,68,0.00,,,0.02,weatherlink.com 1.10,2013-07-02 01:32:00,
2013-07-01 19:47:00,55.7,45.0,29.90,NE,36,0.0,1.0,67,0.00,,,0.02,weatherlink.com 1.10,2013-07-02 01:47:00,
2013-07-01 20:02:00,54.0,47.0,29.91,ESE,104,0.0,11.0,77,0.03,,,0.05,weatherlink.com 1.10,2013-07-02 02:02:00,
2013-07-01 20:16:00,51.8,47.0,29.91,ENE,78,0.0,6.0,83,0.04,,,0.06,weatherlink.com 1.10,2013-07-02 02:16:00,
2013-07-01 20:33:00,50.7,46.0,29.90,ESE,118,0.0,6.0,83,0.04,,,0.06,weatherlink.com 1.10,2013-07-02 02:33:00,
2013-07-01 20:46:00,50.5,46.0,29.92,ESE,119,0.0,0.0,85,0.04,,,0.06,weatherlink.com 1.10,2013-07-02 02:46:00,
2013-07-01 21:01:00,50.5,46.0,29.93,ESE,119,0.0,0.0,85,0.01,,,0.06,weatherlink.com 1.10,2013-07-02 03:01:00,
2013-07-01 21:16:00,50.4,46.0,29.93,ESE,113,0.0,3.0,85,0.00,,,0.06,weatherlink.com 1.10,2013-07-02 03:16:00,
2013-07-01 21:31:00,50.3,45.0,29.92,ESE,111,2.0,7.0,83,0.00,,,0.06,weatherlink.com 1.10,2013-07-02 03:31:00,
2013-07-01 21:46:00,50.0,44.0,29.93,SSE,157,0.0,3.0,81,0.00,,,0.06,weatherlink.com 1.10,2013-07-02 03:46:00,
2013-07-01 22:01:00,49.6,45.0,29.94,SSE,159,0.0,1.0,83,0.00,,,0.06,weatherlink.com 1.10,2013-07-02 04:01:00,
2013-07-01 22:16:00,49.1,45.0,29.94,SSE,159,0.0,0.0,85,0.00,,,0.06,weatherlink.com 1.10,2013-07-02 04:16:00,
2013-07-01 22:31:00,48.4,44.0,29.93,SSE,159,0.0,0.0,84,0.00,,,0.06,weatherlink.com 1.10,2013-07-02 04:31:00,
2013-07-01 22:46:00,48.0,44.0,29.93,SSE,164,0.0,0.0,85,0.00,,,0.06,weatherlink.com 1.10,2013-07-02 04:46:00,
2013-07-01 23:01:00,47.8,43.0,29.93,SSE,164,0.0,1.0,84,0.00,,,0.06,weatherlink.com 1.10,2013-07-02 05:01:00,
2013-07-01 23:16:00,47.9,43.0,29.93,South,173,0.0,2.0,84,0.00,,,0.06,weatherlink.com 1.10,2013-07-02 05:16:00,
2013-07-01 23:31:00,47.8,44.0,29.93,South,173,0.0,0.0,85,0.00,,,0.06,weatherlink.com 1.10,2013-07-02 05:31:00,
2013-07-01 23:46:00,47.4,43.0,29.94,South,174,0.0,1.0,85,0.00,,,0.06,weatherlink.com 1.10,2013-07-02 05:46:00,